Terminal Aerodrome Forecast
Issued by NWS Mt. Holly, NJ

Current Version | Previous Version | Text Only | Print | Product List | Glossary On
Versions: 1 2 3 4 5 6 7 8 9 10 11 12 13 14
000
FTUS41 KPHI 252321
TAFRDG
TAF
KRDG 252321Z 2600/2624 08012KT P6SM OVC050
     FM260200 07008KT P6SM VCSH OVC030
     FM260400 08008KT P6SM VCSH OVC015
     FM260800 08008KT 6SM -DZ BR OVC008
     FM261600 09008KT P6SM OVC010
     FM262000 09010KT 3SM -SHRA OVC010=

USA.gov is the U.S. government's official web portal to all federal, state and local government web resources and services.